createdAt,value
2022-10-23T00:01:23.416Z,9.81
2022-10-23T00:03:54.960Z,9.70
2022-10-23T00:06:23.114Z,9.63
2022-10-23T00:08:51.461Z,9.60
2022-10-23T00:11:23.119Z,9.66
2022-10-23T00:13:52.077Z,9.75
2022-10-23T00:16:20.174Z,9.74
2022-10-23T00:18:48.205Z,9.74
2022-10-23T00:21:18.569Z,9.73
2022-10-23T00:23:47.523Z,9.62
2022-10-23T00:26:16.282Z,9.57
2022-10-23T00:28:45.357Z,9.48
2022-10-23T00:31:14.326Z,9.44
2022-10-23T00:33:43.143Z,9.53
2022-10-23T00:36:14.116Z,9.52
2022-10-23T00:38:44.411Z,9.48
2022-10-23T00:41:18.618Z,9.43
2022-10-23T00:44:02.215Z,9.42
2022-10-23T00:46:31.139Z,9.52
2022-10-23T00:48:59.836Z,9.64
2022-10-23T00:51:31.090Z,9.68
2022-10-23T00:56:52.762Z,9.65
2022-10-23T00:59:20.799Z,9.62
2022-10-23T01:01:49.289Z,9.61
2022-10-23T01:04:18.174Z,9.66
2022-10-23T01:06:55.306Z,9.70
2022-10-23T01:09:30.420Z,9.59
2022-10-23T01:12:04.441Z,9.57
2022-10-23T01:14:40.934Z,9.48
2022-10-23T01:17:13.359Z,9.43
2022-10-23T01:19:53.283Z,9.49
2022-10-23T01:22:38.608Z,9.43
2022-10-23T01:25:21.944Z,9.47
2022-10-23T01:27:57.456Z,9.47
2022-10-23T01:30:25.537Z,9.50
2022-10-23T01:32:57.923Z,9.43
2022-10-23T01:35:30.443Z,9.40
2022-10-23T01:38:07.467Z,9.40
2022-10-23T01:40:39.732Z,9.36
2022-10-23T01:43:14.320Z,9.38
2022-10-23T01:45:45.506Z,9.46
2022-10-23T01:48:17.879Z,9.54
2022-10-23T01:50:47.892Z,9.52
2022-10-23T01:53:16.304Z,9.42
2022-10-23T01:55:45.526Z,9.44
2022-10-23T01:58:17.445Z,9.35
2022-10-23T02:00:48.429Z,9.43
2022-10-23T02:03:18.952Z,9.42
2022-10-23T02:05:47.154Z,9.38
2022-10-23T02:08:15.357Z,9.52
2022-10-23T02:10:50.116Z,9.54
2022-10-23T02:13:27.490Z,9.53
2022-10-23T02:16:04.746Z,9.59
2022-10-23T02:18:41.716Z,9.73
2022-10-23T02:21:13.400Z,9.63
2022-10-23T02:23:46.676Z,9.44
2022-10-23T02:26:19.087Z,9.36
2022-10-23T02:28:53.533Z,9.34
2022-10-23T02:31:24.425Z,9.33
2022-10-23T02:33:52.699Z,9.35
2022-10-23T02:36:21.331Z,9.43
2022-10-23T02:38:49.424Z,9.45
2022-10-23T02:41:25.191Z,9.40
2022-10-23T02:44:09.643Z,9.39
2022-10-23T02:46:50.487Z,9.32
2022-10-23T02:49:25.824Z,9.49
2022-10-23T02:52:01.029Z,9.71
2022-10-23T02:54:42.783Z,9.76
2022-10-23T02:57:21.759Z,9.73
2022-10-23T03:00:02.092Z,9.79
2022-10-23T03:02:37.919Z,9.80
2022-10-23T03:05:10.182Z,9.81
2022-10-23T03:07:40.170Z,10.01
2022-10-23T03:10:10.204Z,10.16
2022-10-23T03:12:38.739Z,10.09
2022-10-23T03:15:09.745Z,10.27
2022-10-23T03:17:37.766Z,10.38
2022-10-23T03:20:06.166Z,10.42
2022-10-23T03:22:34.516Z,10.47
2022-10-23T03:25:02.527Z,10.53
2022-10-23T03:27:30.602Z,10.59
2022-10-23T03:29:58.762Z,10.68
2022-10-23T03:32:28.266Z,10.73
2022-10-23T03:34:56.281Z,10.80
2022-10-23T03:37:24.565Z,10.96
2022-10-23T03:39:53.172Z,11.10
2022-10-23T03:42:21.346Z,11.16
2022-10-23T03:44:49.647Z,11.37
2022-10-23T03:47:17.680Z,11.58
2022-10-23T03:49:47.127Z,11.79
2022-10-23T03:52:15.277Z,11.90
2022-10-23T03:54:43.378Z,11.93
2022-10-23T03:57:11.408Z,11.86
2022-10-23T03:59:39.663Z,11.88
2022-10-23T04:02:07.853Z,11.75
2022-10-23T04:04:36.207Z,11.82
2022-10-23T04:07:05.710Z,11.65
2022-10-23T04:09:33.736Z,11.56
2022-10-23T04:12:01.849Z,11.77
2022-10-23T04:14:30.135Z,11.89
2022-10-23T04:16:59.355Z,11.88
2022-10-23T04:19:27.592Z,11.87
2022-10-23T04:21:57.367Z,11.84
2022-10-23T04:24:27.541Z,11.84
2022-10-23T04:26:56.338Z,11.86
2022-10-23T04:29:24.765Z,11.88
2022-10-23T04:31:53.184Z,12.01
2022-10-23T04:34:21.197Z,12.10
2022-10-23T04:36:49.201Z,12.17
2022-10-23T04:39:17.214Z,12.16
2022-10-23T04:41:46.598Z,12.19
2022-10-23T04:44:14.888Z,12.28
2022-10-23T04:46:42.936Z,12.44
2022-10-23T04:49:10.984Z,12.56
2022-10-23T04:51:39.419Z,12.68
2022-10-23T04:54:07.446Z,12.78
2022-10-23T04:56:35.796Z,12.97
2022-10-23T05:01:39.266Z,13.38
2022-10-23T05:04:07.609Z,13.59
2022-10-23T05:06:35.618Z,13.78
2022-10-23T05:09:03.732Z,14.07
2022-10-23T05:11:31.825Z,14.20
2022-10-23T05:13:59.966Z,14.36
2022-10-23T05:16:37.329Z,14.43
2022-10-23T05:19:07.417Z,14.49
2022-10-23T05:21:37.097Z,14.64
2022-10-23T05:24:05.807Z,14.63
2022-10-23T05:26:34.080Z,14.72
2022-10-23T05:29:02.142Z,14.81
2022-10-23T05:31:32.435Z,14.87
2022-10-23T05:34:02.156Z,14.93
2022-10-23T05:36:30.355Z,15.08
2022-10-23T05:38:59.173Z,15.26
2022-10-23T05:41:27.299Z,15.51
2022-10-23T05:43:55.394Z,15.72
2022-10-23T05:46:24.234Z,15.88
2022-10-23T05:48:54.271Z,16.04
2022-10-23T05:51:23.361Z,16.35
2022-10-23T05:53:53.058Z,16.50
2022-10-23T05:56:21.162Z,16.64
2022-10-23T05:58:49.357Z,16.91
2022-10-23T06:01:19.083Z,17.09
2022-10-23T06:03:47.321Z,17.23
2022-10-23T06:06:16.807Z,17.46
2022-10-23T06:08:44.998Z,17.65
2022-10-23T06:11:15.429Z,17.75
2022-10-23T06:13:44.814Z,17.94
2022-10-23T06:16:13.989Z,18.12
2022-10-23T06:18:43.064Z,18.17
2022-10-23T06:21:12.020Z,18.27
2022-10-23T06:23:42.789Z,18.27
2022-10-23T06:26:13.660Z,18.30
2022-10-23T06:28:43.087Z,18.37
2022-10-23T06:31:13.094Z,18.53
2022-10-23T06:33:42.383Z,18.59
2022-10-23T06:36:11.601Z,18.74
2022-10-23T06:38:41.300Z,18.83
2022-10-23T06:41:18.075Z,18.88
2022-10-23T06:43:48.912Z,19.03
2022-10-23T06:46:17.778Z,19.12
2022-10-23T06:48:46.480Z,19.16
2022-10-23T06:51:16.769Z,19.25
2022-10-23T06:53:47.502Z,19.32
2022-10-23T06:56:15.708Z,19.38
2022-10-23T06:58:43.719Z,19.41
2022-10-23T07:01:14.274Z,19.48
2022-10-23T07:03:42.577Z,19.58
2022-10-23T07:06:12.486Z,19.68
2022-10-23T07:08:40.583Z,19.74
2022-10-23T07:11:11.948Z,19.78
2022-10-23T07:13:40.684Z,19.88
2022-10-23T07:16:13.694Z,19.99
2022-10-23T07:18:42.444Z,20.07
2022-10-23T07:21:11.121Z,20.09
2022-10-23T07:23:39.217Z,20.19
2022-10-23T07:26:10.562Z,20.31
2022-10-23T07:28:38.943Z,20.41
2022-10-23T07:31:07.344Z,20.45
2022-10-23T07:33:35.478Z,20.52
2022-10-23T07:36:05.978Z,20.57
2022-10-23T07:38:34.499Z,20.68
2022-10-23T07:41:03.348Z,20.76
2022-10-23T07:43:34.027Z,20.86
2022-10-23T07:46:02.366Z,20.91
2022-10-23T07:48:30.715Z,20.99
2022-10-23T07:51:01.972Z,21.02
2022-10-23T07:53:30.681Z,21.14
2022-10-23T07:56:00.767Z,21.24
2022-10-23T07:58:30.273Z,21.30
2022-10-23T08:01:02.639Z,21.27
2022-10-23T08:03:32.630Z,21.38
2022-10-23T08:06:01.312Z,21.45
2022-10-23T08:08:29.402Z,21.53
2022-10-23T08:10:57.495Z,21.54
2022-10-23T08:13:25.572Z,21.60
2022-10-23T08:15:54.471Z,21.71
2022-10-23T08:18:23.945Z,21.73
2022-10-23T08:20:53.008Z,21.82
2022-10-23T08:23:21.520Z,21.89
2022-10-23T08:25:50.099Z,22.00
2022-10-23T08:28:18.138Z,22.02
2022-10-23T08:30:46.207Z,22.01
2022-10-23T08:33:14.293Z,22.03
2022-10-23T08:35:43.819Z,22.05
2022-10-23T08:38:12.067Z,22.04
2022-10-23T08:40:44.605Z,22.15
2022-10-23T08:43:19.001Z,22.15
2022-10-23T08:45:50.905Z,22.15
2022-10-23T08:48:26.554Z,22.17
2022-10-23T08:50:59.425Z,22.27
2022-10-23T08:53:33.862Z,22.43
2022-10-23T08:56:05.771Z,22.44
2022-10-23T08:58:41.404Z,22.46
2022-10-23T09:01:28.758Z,22.58
2022-10-23T09:03:57.888Z,22.64
2022-10-23T09:06:36.448Z,22.71
2022-10-23T09:09:21.976Z,22.75
2022-10-23T09:12:01.427Z,22.86
2022-10-23T09:14:47.352Z,22.91
2022-10-23T09:17:24.784Z,23.01
2022-10-23T09:20:00.528Z,23.03
2022-10-23T09:22:30.767Z,23.02
2022-10-23T09:24:58.920Z,23.03
2022-10-23T09:27:27.030Z,23.12
2022-10-23T09:29:56.703Z,23.13
2022-10-23T09:32:38.002Z,23.16
2022-10-23T09:35:07.521Z,23.19
2022-10-23T09:37:46.559Z,23.29
2022-10-23T09:40:19.592Z,23.36
2022-10-23T09:42:56.763Z,23.46
2022-10-23T09:45:27.833Z,23.53
2022-10-23T09:48:13.640Z,23.48
2022-10-23T09:50:50.717Z,23.38
2022-10-23T09:53:26.160Z,23.44
2022-10-23T09:55:56.932Z,23.51
2022-10-23T09:58:31.770Z,23.57
2022-10-23T10:01:00.449Z,23.59
2022-10-23T10:03:29.015Z,23.64
2022-10-23T10:06:00.677Z,23.62
2022-10-23T10:08:41.949Z,23.59
2022-10-23T10:11:17.359Z,23.79
2022-10-23T10:14:06.865Z,23.77
2022-10-23T10:16:44.164Z,23.83
2022-10-23T10:19:32.746Z,23.88
2022-10-23T10:22:10.271Z,23.83
2022-10-23T10:24:49.037Z,23.87
2022-10-23T10:27:27.735Z,23.99
2022-10-23T10:30:05.024Z,23.91
2022-10-23T10:32:41.741Z,23.93
2022-10-23T10:35:25.115Z,23.99
2022-10-23T10:38:16.171Z,23.99
2022-10-23T10:40:53.058Z,23.99
2022-10-23T10:43:35.077Z,23.96
2022-10-23T10:46:12.563Z,23.94
2022-10-23T10:48:50.577Z,24.06
2022-10-23T10:51:30.023Z,24.12
2022-10-23T10:54:23.032Z,24.15
2022-10-23T10:56:52.750Z,24.29
2022-10-23T10:59:25.834Z,24.25
2022-10-23T11:01:59.331Z,24.32
2022-10-23T11:04:35.579Z,24.27
2022-10-23T11:07:10.187Z,24.38
2022-10-23T11:09:40.704Z,24.42
2022-10-23T11:12:19.300Z,24.42
2022-10-23T11:14:48.518Z,24.45
2022-10-23T11:17:24.381Z,24.41
2022-10-23T11:20:04.391Z,24.41
2022-10-23T11:22:38.307Z,24.41
2022-10-23T11:25:28.890Z,24.55
2022-10-23T11:28:14.667Z,24.60
2022-10-23T11:31:01.035Z,24.57
2022-10-23T11:33:55.327Z,24.54
2022-10-23T11:36:43.739Z,24.60
2022-10-23T11:39:27.288Z,24.64
2022-10-23T11:41:57.512Z,24.64
2022-10-23T11:44:40.726Z,24.62
2022-10-23T11:47:35.024Z,24.65
2022-10-23T11:50:27.912Z,24.65
2022-10-23T11:53:13.654Z,24.75
2022-10-23T11:55:59.182Z,24.79
2022-10-23T11:58:41.404Z,24.78
2022-10-23T12:01:26.653Z,24.84
2022-10-23T12:03:58.856Z,24.89
2022-10-23T12:06:30.081Z,24.78
2022-10-23T12:09:02.751Z,24.81
2022-10-23T12:11:43.478Z,24.80
2022-10-23T12:14:29.611Z,24.80
2022-10-23T12:16:59.592Z,24.85
2022-10-23T12:19:29.844Z,24.92
2022-10-23T12:22:02.152Z,24.92
2022-10-23T12:25:01.296Z,24.97
2022-10-23T12:27:36.890Z,24.95
2022-10-23T12:30:19.662Z,24.90
2022-10-23T12:33:11.885Z,24.83
2022-10-23T12:36:13.431Z,24.85
2022-10-23T12:38:46.523Z,24.85
2022-10-23T12:41:18.939Z,24.80
2022-10-23T12:43:54.189Z,24.88
2022-10-23T12:46:37.834Z,24.95
2022-10-23T12:49:15.643Z,25.01
2022-10-23T12:51:43.799Z,24.95
2022-10-23T12:54:17.834Z,24.85
2022-10-23T12:56:46.465Z,24.80
2022-10-23T12:59:18.694Z,24.71
2022-10-23T13:01:52.592Z,24.82
2022-10-23T13:04:30.119Z,24.86
2022-10-23T13:07:00.285Z,24.82
2022-10-23T13:09:32.275Z,24.79
2022-10-23T13:12:05.028Z,24.77
2022-10-23T13:14:39.343Z,24.78
2022-10-23T13:17:12.397Z,24.78
2022-10-23T13:19:41.882Z,24.76
2022-10-23T13:22:21.271Z,24.79
2022-10-23T13:24:49.832Z,24.77
2022-10-23T13:27:34.008Z,24.74
2022-10-23T13:30:03.981Z,24.75
2022-10-23T13:32:34.212Z,24.74
2022-10-23T13:35:20.420Z,24.63
2022-10-23T13:37:51.018Z,24.78
2022-10-23T13:40:25.115Z,24.70
2022-10-23T13:42:54.862Z,24.73
2022-10-23T13:45:25.096Z,24.77
2022-10-23T13:47:53.342Z,24.71
2022-10-23T13:50:23.812Z,24.68
2022-10-23T13:52:53.187Z,24.74
2022-10-23T13:55:25.064Z,24.59
2022-10-23T13:57:53.201Z,24.58
2022-10-23T14:00:21.529Z,24.60
2022-10-23T14:02:49.668Z,24.59
2022-10-23T14:05:17.773Z,24.59
2022-10-23T14:07:48.018Z,24.52
2022-10-23T14:10:16.223Z,24.52
2022-10-23T14:12:45.310Z,24.44
2022-10-23T14:15:13.660Z,24.47
2022-10-23T14:17:41.728Z,24.43
2022-10-23T14:20:11.905Z,24.41
2022-10-23T14:22:40.018Z,24.36
2022-10-23T14:25:10.039Z,24.36
2022-10-23T14:27:38.164Z,24.37
2022-10-23T14:30:07.570Z,24.36
2022-10-23T14:32:35.688Z,24.33
2022-10-23T14:35:04.117Z,24.31
2022-10-23T14:37:32.497Z,24.27
2022-10-23T14:40:00.832Z,24.22
2022-10-23T14:42:34.385Z,24.22
2022-10-23T14:45:02.885Z,24.20
2022-10-23T14:47:31.182Z,24.09
2022-10-23T14:49:59.197Z,24.07
2022-10-23T14:52:27.410Z,24.01
2022-10-23T14:54:56.153Z,23.96
2022-10-23T14:57:24.303Z,23.90
2022-10-23T14:59:53.812Z,23.75
2022-10-23T15:02:21.905Z,23.64
2022-10-23T15:04:50.150Z,23.49
2022-10-23T15:07:18.357Z,23.41
2022-10-23T15:09:46.440Z,23.31
2022-10-23T15:12:14.510Z,23.26
2022-10-23T15:14:42.662Z,23.16
2022-10-23T15:17:15.803Z,23.04
2022-10-23T15:19:44.016Z,22.92
2022-10-23T15:22:12.083Z,22.78
2022-10-23T15:24:40.230Z,22.76
2022-10-23T15:29:41.638Z,22.69
2022-10-23T15:32:13.002Z,22.66
2022-10-23T15:34:43.104Z,22.53
2022-10-23T15:37:12.775Z,22.44
2022-10-23T15:39:41.008Z,22.45
2022-10-23T15:42:09.981Z,22.24
2022-10-23T15:44:38.572Z,22.17
2022-10-23T15:47:06.889Z,22.00
2022-10-23T15:49:38.267Z,21.87
2022-10-23T15:54:40.624Z,21.51
2022-10-23T15:57:08.769Z,21.42
2022-10-23T15:59:37.031Z,21.37
2022-10-23T16:02:05.525Z,21.18
2022-10-23T16:04:35.539Z,21.20
2022-10-23T16:07:05.842Z,21.37
2022-10-23T16:09:34.254Z,21.38
2022-10-23T16:12:04.054Z,21.41
2022-10-23T16:14:32.359Z,21.51
2022-10-23T16:17:00.600Z,21.55
2022-10-23T16:19:28.992Z,21.52
2022-10-23T16:21:57.327Z,21.56
2022-10-23T16:24:26.988Z,21.51
2022-10-23T16:26:56.517Z,21.49
2022-10-23T16:29:25.718Z,21.46
2022-10-23T16:31:55.479Z,21.38
2022-10-23T16:34:23.784Z,21.35
2022-10-23T16:36:51.898Z,21.33
2022-10-23T16:39:21.790Z,21.31
2022-10-23T16:41:51.310Z,21.32
2022-10-23T16:44:19.727Z,21.26
2022-10-23T16:46:47.828Z,21.26
2022-10-23T16:49:15.892Z,21.16
2022-10-23T16:51:43.922Z,21.11
2022-10-23T16:54:12.180Z,20.90
2022-10-23T16:56:40.565Z,20.73
2022-10-23T16:59:11.441Z,20.59
2022-10-23T17:01:39.776Z,20.47
2022-10-23T17:04:08.501Z,20.33
2022-10-23T17:06:37.258Z,20.23
2022-10-23T17:09:06.844Z,20.32
2022-10-23T17:11:37.497Z,20.30
2022-10-23T17:14:08.352Z,20.40
2022-10-23T17:16:40.579Z,20.37
2022-10-23T17:19:20.720Z,20.31
2022-10-23T17:21:59.203Z,20.13
2022-10-23T17:24:27.472Z,19.94
2022-10-23T17:26:56.221Z,19.80
2022-10-23T17:29:24.934Z,19.78
2022-10-23T17:31:55.380Z,19.76
2022-10-23T17:34:24.948Z,19.78
2022-10-23T17:36:55.825Z,19.71
2022-10-23T17:39:25.998Z,19.69
2022-10-23T17:41:54.271Z,19.70
2022-10-23T17:44:23.783Z,19.61
2022-10-23T17:46:53.970Z,19.58
2022-10-23T17:49:24.962Z,19.55
2022-10-23T17:51:54.181Z,19.44
2022-10-23T17:54:23.258Z,19.38
2022-10-23T17:56:51.856Z,19.41
2022-10-23T17:59:20.093Z,19.25
2022-10-23T18:01:50.234Z,19.14
2022-10-23T18:04:20.159Z,19.03
2022-10-23T18:06:53.618Z,18.92
2022-10-23T18:09:23.108Z,18.88
2022-10-23T18:11:51.763Z,18.83
2022-10-23T18:14:23.085Z,18.78
2022-10-23T18:16:52.646Z,18.79
2022-10-23T18:19:20.882Z,18.76
2022-10-23T18:21:50.893Z,18.77
2022-10-23T18:24:20.293Z,18.72
2022-10-23T18:26:49.325Z,18.59
2022-10-23T18:29:18.729Z,18.47
2022-10-23T18:31:49.148Z,18.36
2022-10-23T18:34:20.490Z,18.24
2022-10-23T18:36:52.108Z,18.15
2022-10-23T18:39:23.720Z,18.13
2022-10-23T18:41:54.495Z,18.05
2022-10-23T18:44:24.648Z,17.96
2022-10-23T18:46:53.444Z,17.90
2022-10-23T18:49:21.617Z,17.85
2022-10-23T18:51:52.163Z,17.80
2022-10-23T18:54:22.471Z,17.76
2022-10-23T18:56:50.875Z,17.72
2022-10-23T18:59:22.725Z,17.68
2022-10-23T19:01:51.523Z,17.62
2022-10-23T19:04:20.489Z,17.58
2022-10-23T19:06:51.530Z,17.51
2022-10-23T19:09:21.073Z,17.48
2022-10-23T19:11:49.510Z,17.45
2022-10-23T19:14:18.039Z,17.37
2022-10-23T19:16:56.044Z,17.29
2022-10-23T19:19:28.973Z,17.27
2022-10-23T19:21:58.801Z,17.22
2022-10-23T19:24:32.448Z,17.18
2022-10-23T19:27:02.960Z,17.15
2022-10-23T19:29:31.590Z,17.20
2022-10-23T19:32:01.564Z,17.13
2022-10-23T19:34:29.726Z,17.09
2022-10-23T19:36:59.249Z,17.03
2022-10-23T19:39:27.819Z,17.05
2022-10-23T19:41:56.212Z,16.98
2022-10-23T19:44:24.333Z,17.05
2022-10-23T19:46:52.707Z,17.08
2022-10-23T19:49:23.956Z,17.13
2022-10-23T19:51:52.650Z,17.04
2022-10-23T19:54:24.620Z,16.96
2022-10-23T19:56:53.162Z,16.93
2022-10-23T19:59:21.253Z,16.85
2022-10-23T20:01:51.008Z,16.82
2022-10-23T20:04:19.933Z,16.75
2022-10-23T20:06:48.897Z,16.83
2022-10-23T20:09:17.273Z,16.89
2022-10-23T20:11:49.241Z,16.78
2022-10-23T20:14:18.126Z,16.77
2022-10-23T20:16:50.145Z,16.75
2022-10-23T20:19:21.671Z,16.68
2022-10-23T20:21:50.356Z,16.57
2022-10-23T20:24:20.103Z,16.50
2022-10-23T20:26:51.365Z,16.39
2022-10-23T20:29:20.030Z,16.27
2022-10-23T20:31:48.505Z,16.21
2022-10-23T20:34:17.677Z,16.13
2022-10-23T20:36:49.405Z,16.07
2022-10-23T20:39:19.880Z,16.00
2022-10-23T20:41:51.767Z,16.03
2022-10-23T20:44:20.407Z,15.94
2022-10-23T20:46:49.031Z,15.87
2022-10-23T20:49:17.682Z,15.77
2022-10-23T20:51:46.346Z,15.69
2022-10-23T20:54:14.348Z,15.64
2022-10-23T20:56:42.514Z,15.59
2022-10-23T20:59:15.564Z,15.60
2022-10-23T21:01:45.871Z,15.68
2022-10-23T21:04:15.734Z,15.75
2022-10-23T21:07:08.426Z,15.73
2022-10-23T21:09:32.405Z,15.53
2022-10-23T21:12:00.431Z,15.38
2022-10-23T21:14:30.471Z,15.22
2022-10-23T21:16:58.668Z,15.11
2022-10-23T21:19:26.841Z,15.06
2022-10-23T21:21:55.695Z,15.06
2022-10-23T21:24:24.181Z,15.04
2022-10-23T21:26:52.225Z,14.94
2022-10-23T21:29:20.576Z,14.89
2022-10-23T21:31:55.359Z,14.76
2022-10-23T21:34:23.491Z,14.66
2022-10-23T21:39:39.723Z,14.59
2022-10-23T21:42:08.042Z,14.62
2022-10-23T21:44:36.170Z,14.59
2022-10-23T21:47:05.975Z,14.52
2022-10-23T21:49:33.949Z,14.43
2022-10-23T21:52:19.047Z,14.39
2022-10-23T21:54:52.962Z,14.38
2022-10-23T21:57:21.760Z,14.34
2022-10-23T21:59:49.883Z,14.32
2022-10-23T22:02:19.560Z,14.32
2022-10-23T22:04:47.637Z,14.27
2022-10-23T22:07:15.940Z,14.22
2022-10-23T22:09:44.632Z,14.17
2022-10-23T22:12:13.146Z,14.11
2022-10-23T22:14:41.189Z,14.06
2022-10-23T22:17:09.563Z,14.00
2022-10-23T22:19:39.086Z,13.94
2022-10-23T22:22:08.017Z,13.91
2022-10-23T22:24:37.312Z,13.91
2022-10-23T22:27:05.421Z,13.93
2022-10-23T22:29:33.497Z,13.98
2022-10-23T22:32:01.571Z,14.06
2022-10-23T22:34:51.865Z,14.01
2022-10-23T22:37:20.871Z,13.92
2022-10-23T22:39:52.041Z,13.83
2022-10-23T22:42:20.271Z,13.74
2022-10-23T22:44:48.346Z,13.66
2022-10-23T22:47:16.409Z,13.60
2022-10-23T22:49:44.413Z,13.55
2022-10-23T22:52:12.477Z,13.49
2022-10-23T22:54:41.975Z,13.44
2022-10-23T22:57:10.048Z,13.36
2022-10-23T22:59:38.103Z,13.31
2022-10-23T23:02:06.461Z,13.25
2022-10-23T23:04:38.602Z,13.20
2022-10-23T23:07:07.596Z,13.16
2022-10-23T23:09:38.068Z,13.12
2022-10-23T23:12:08.480Z,13.05
2022-10-23T23:14:36.524Z,13.00
2022-10-23T23:17:04.873Z,12.94
2022-10-23T23:19:33.041Z,12.88
2022-10-23T23:22:01.444Z,12.84
2022-10-23T23:24:29.717Z,12.87
2022-10-23T23:26:57.802Z,12.84
2022-10-23T23:29:28.446Z,12.87
2022-10-23T23:31:56.560Z,12.81
2022-10-23T23:34:24.699Z,12.75
2022-10-23T23:36:52.871Z,12.70
2022-10-23T23:39:20.929Z,12.71
2022-10-23T23:41:49.129Z,12.68
2022-10-23T23:44:17.200Z,12.62
2022-10-23T23:46:46.687Z,12.62
2022-10-23T23:49:14.847Z,12.58
2022-10-23T23:51:44.084Z,12.58
2022-10-23T23:54:12.212Z,12.63
2022-10-23T23:56:40.420Z,12.67
2022-10-23T23:59:08.470Z,12.65
